createdAt,value
2023-03-17T00:03:29.641Z,66.03
2023-03-17T00:08:35.861Z,65.63
2023-03-17T00:13:38.547Z,65.30
2023-03-17T00:18:39.995Z,65.74
2023-03-17T00:23:48.556Z,65.85
2023-03-17T00:28:51.108Z,66.73
2023-03-17T00:33:54.148Z,66.90
2023-03-17T00:38:56.213Z,66.50
2023-03-17T00:43:59.620Z,66.48
2023-03-17T00:49:14.207Z,66.54
2023-03-17T00:54:16.824Z,67.27
2023-03-17T00:59:38.587Z,67.37
2023-03-17T01:04:41.870Z,67.20
2023-03-17T01:09:45.323Z,67.79
2023-03-17T01:14:48.020Z,67.27
2023-03-17T01:19:49.539Z,67.92
2023-03-17T01:24:51.503Z,68.48
2023-03-17T01:29:54.448Z,68.82
2023-03-17T01:34:56.334Z,68.81
2023-03-17T01:39:58.412Z,68.94
2023-03-17T01:45:07.309Z,69.33
2023-03-17T01:50:10.116Z,68.56
2023-03-17T01:55:17.552Z,68.94
2023-03-17T02:00:24.823Z,69.14
2023-03-17T02:05:29.671Z,68.81
2023-03-17T02:10:32.305Z,68.83
2023-03-17T02:15:39.131Z,68.58
2023-03-17T02:20:40.569Z,69.23
2023-03-17T02:25:45.815Z,70.22
2023-03-17T02:30:49.592Z,70.67
2023-03-17T02:35:52.864Z,70.67
2023-03-17T02:40:54.459Z,70.67
2023-03-17T02:45:55.971Z,70.67
2023-03-17T02:50:57.602Z,71.02
2023-03-17T02:55:59.076Z,71.38
2023-03-17T03:01:00.572Z,71.51
2023-03-17T03:06:03.243Z,71.51
2023-03-17T03:11:05.037Z,72.30
2023-03-17T03:16:06.992Z,71.81
2023-03-17T03:21:08.476Z,72.56
2023-03-17T03:26:09.988Z,72.69
2023-03-17T03:31:11.759Z,72.69
2023-03-17T03:36:13.404Z,72.69
2023-03-17T03:41:14.930Z,72.69
2023-03-17T03:46:16.570Z,72.69
2023-03-17T03:51:18.094Z,72.69
2023-03-17T03:56:19.575Z,72.69
2023-03-17T04:01:21.057Z,72.69
2023-03-17T04:06:22.642Z,72.69
2023-03-17T04:11:24.216Z,72.69
2023-03-17T04:21:27.625Z,72.69
2023-03-17T04:26:29.087Z,72.69
2023-03-17T04:31:30.741Z,72.69
2023-03-17T04:36:32.715Z,72.69
2023-03-17T04:41:34.549Z,72.69
2023-03-17T04:46:36.070Z,72.69
2023-03-17T04:56:39.128Z,72.69
2023-03-17T05:06:42.358Z,72.69
2023-03-17T05:11:43.870Z,72.69
2023-03-17T05:21:52.312Z,72.69
2023-03-17T05:26:53.814Z,72.69
2023-03-17T05:31:55.254Z,72.69
2023-03-17T05:36:56.951Z,72.69
2023-03-17T05:41:58.525Z,72.69
2023-03-17T05:52:01.938Z,72.69
2023-03-17T05:57:03.889Z,72.69
2023-03-17T06:02:05.444Z,72.69
2023-03-17T06:07:07.244Z,72.69
2023-03-17T06:12:09.559Z,72.69
2023-03-17T06:17:12.366Z,55.45
2023-03-17T06:22:13.853Z,100.00
2023-03-17T06:27:15.398Z,100.00
2023-03-17T06:32:20.688Z,100.00
2023-03-17T06:37:22.525Z,55.45
2023-03-17T06:42:24.008Z,72.69
2023-03-17T06:47:26.111Z,72.69
2023-03-17T06:52:27.725Z,72.69
2023-03-17T06:57:29.255Z,72.69
2023-03-17T07:02:31.055Z,72.69
2023-03-17T07:07:32.514Z,72.69
2023-03-17T07:12:34.188Z,74.61
2023-03-17T07:17:35.855Z,74.61
2023-03-17T07:22:37.319Z,73.97
2023-03-17T07:27:38.878Z,73.97
2023-03-17T07:32:40.410Z,73.97
2023-03-17T07:37:42.314Z,73.97
2023-03-17T07:42:45.384Z,73.97
2023-03-17T07:47:47.169Z,73.17
2023-03-17T07:52:48.845Z,72.80
2023-03-17T07:57:50.773Z,72.52
2023-03-17T08:03:06.769Z,72.78
2023-03-17T08:08:11.408Z,72.45
2023-03-17T08:13:12.874Z,72.50
2023-03-17T08:18:14.446Z,72.40
2023-03-17T08:23:16.420Z,71.92
2023-03-17T08:28:17.908Z,72.02
2023-03-17T08:33:19.463Z,70.92
2023-03-17T08:38:21.064Z,70.94
2023-03-17T08:43:23.835Z,69.63
2023-03-17T08:48:25.459Z,69.01
2023-03-17T08:53:27.390Z,70.47
2023-03-17T08:58:37.905Z,70.12
2023-03-17T09:03:40.779Z,69.72
2023-03-17T09:08:47.433Z,69.16
2023-03-17T09:13:49.476Z,67.60
2023-03-17T09:18:51.280Z,68.42
2023-03-17T09:23:52.963Z,66.40
2023-03-17T09:28:55.437Z,65.57
2023-03-17T09:33:56.865Z,64.21
2023-03-17T09:38:59.274Z,64.75
2023-03-17T09:44:37.878Z,64.14
2023-03-17T09:49:47.303Z,63.23
2023-03-17T09:54:49.506Z,62.95
2023-03-17T10:00:01.285Z,63.87
2023-03-17T10:05:18.066Z,64.36
2023-03-17T10:10:45.466Z,64.28
2023-03-17T10:15:58.718Z,63.06
2023-03-17T10:21:04.332Z,62.22
2023-03-17T10:26:16.181Z,60.30
2023-03-17T10:31:27.835Z,60.53
2023-03-17T10:36:38.304Z,59.74
2023-03-17T10:41:47.907Z,58.95
2023-03-17T10:46:55.291Z,57.84
2023-03-17T10:51:56.966Z,57.74
2023-03-17T10:57:03.484Z,56.73
2023-03-17T11:02:44.444Z,56.91
2023-03-17T11:07:45.997Z,54.39
2023-03-17T11:12:52.241Z,54.53
2023-03-17T11:18:01.096Z,52.52
2023-03-17T11:23:15.613Z,52.73
2023-03-17T11:28:24.863Z,52.46
2023-03-17T11:33:39.159Z,52.05
2023-03-17T11:38:57.680Z,52.71
2023-03-17T11:44:18.305Z,52.69
2023-03-17T11:49:24.475Z,52.26
2023-03-17T11:54:44.538Z,52.23
2023-03-17T12:00:07.295Z,52.47
2023-03-17T12:05:24.057Z,53.91
2023-03-17T12:10:36.363Z,52.84
2023-03-17T12:15:50.913Z,53.65
2023-03-17T12:20:57.863Z,53.97
2023-03-17T12:26:07.172Z,53.25
2023-03-17T12:31:33.088Z,53.36
2023-03-17T12:36:36.710Z,52.97
2023-03-17T12:41:53.599Z,54.43
2023-03-17T12:47:32.406Z,54.28
2023-03-17T12:52:52.790Z,54.17
2023-03-17T12:58:00.088Z,54.35
2023-03-17T13:03:47.871Z,53.81
2023-03-17T13:08:51.679Z,54.04
2023-03-17T13:14:11.566Z,54.01
2023-03-17T13:19:22.708Z,53.29
2023-03-17T13:24:43.570Z,52.51
2023-03-17T13:29:46.093Z,52.76
2023-03-17T13:35:15.852Z,52.85
2023-03-17T13:40:22.907Z,53.10
2023-03-17T13:45:41.237Z,52.38
2023-03-17T13:50:42.969Z,53.06
2023-03-17T13:56:08.986Z,51.31
2023-03-17T14:01:14.102Z,49.92
2023-03-17T14:06:18.711Z,50.16
2023-03-17T14:11:32.299Z,49.28
2023-03-17T14:17:05.149Z,50.06
2023-03-17T14:22:27.092Z,50.99
2023-03-17T14:27:33.745Z,51.78
2023-03-17T14:32:35.497Z,52.66
2023-03-17T14:37:37.583Z,52.30
2023-03-17T14:42:39.034Z,51.35
2023-03-17T14:47:43.180Z,51.90
2023-03-17T14:52:44.801Z,52.65
2023-03-17T14:57:51.747Z,52.36
2023-03-17T15:02:59.317Z,52.40
2023-03-17T15:08:01.041Z,52.06
2023-03-17T15:13:05.829Z,53.14
2023-03-17T15:18:13.194Z,53.54
2023-03-17T15:23:14.592Z,53.72
2023-03-17T15:28:19.216Z,53.49
2023-03-17T15:33:29.900Z,54.44
2023-03-17T15:38:33.165Z,55.21
2023-03-17T15:43:34.863Z,55.55
2023-03-17T15:48:36.623Z,55.55
2023-03-17T15:53:38.084Z,57.71
2023-03-17T15:58:39.514Z,55.08
2023-03-17T16:03:41.998Z,52.00
2023-03-17T16:08:44.263Z,51.69
2023-03-17T16:13:47.337Z,52.10
2023-03-17T16:18:51.500Z,52.67
2023-03-17T16:23:53.207Z,52.66
2023-03-17T16:28:55.798Z,52.97
2023-03-17T16:33:57.565Z,53.91
2023-03-17T16:38:59.919Z,53.93
2023-03-17T16:44:02.735Z,54.35
2023-03-17T16:49:05.394Z,54.66
2023-03-17T16:54:07.434Z,54.63
2023-03-17T16:59:20.759Z,55.41
2023-03-17T17:04:24.081Z,56.45
2023-03-17T17:09:25.567Z,56.14
2023-03-17T17:14:27.126Z,57.01
2023-03-17T17:19:28.663Z,57.13
2023-03-17T17:24:31.043Z,57.31
2023-03-17T17:29:32.614Z,57.20
2023-03-17T17:34:34.161Z,57.60
2023-03-17T17:39:35.573Z,59.27
2023-03-17T17:44:37.270Z,62.16
2023-03-17T17:49:38.900Z,63.32
2023-03-17T17:54:40.352Z,64.13
2023-03-17T17:59:41.771Z,64.85
2023-03-17T18:04:43.235Z,65.58
2023-03-17T18:09:44.807Z,66.29
2023-03-17T18:14:46.264Z,65.72
2023-03-17T18:19:55.124Z,65.83
2023-03-17T18:24:56.696Z,65.62
2023-03-17T18:29:59.902Z,65.60
2023-03-17T18:35:06.893Z,66.56
2023-03-17T18:40:15.102Z,66.96
2023-03-17T18:45:17.870Z,66.51
2023-03-17T18:50:21.642Z,66.33
2023-03-17T18:55:23.224Z,66.75
2023-03-17T19:00:26.390Z,66.75
2023-03-17T19:05:28.182Z,67.44
2023-03-17T19:10:30.253Z,67.60
2023-03-17T19:15:32.041Z,68.46
2023-03-17T19:20:35.987Z,68.86
2023-03-17T19:25:37.459Z,69.16
2023-03-17T19:30:39.272Z,69.50
2023-03-17T19:35:41.615Z,69.62
2023-03-17T19:40:43.178Z,69.33
2023-03-17T19:45:44.627Z,69.34
2023-03-17T19:50:46.108Z,68.88
2023-03-17T19:55:47.673Z,68.81
2023-03-17T20:00:49.145Z,68.83
2023-03-17T20:05:52.489Z,68.72
2023-03-17T20:10:54.172Z,69.11
2023-03-17T20:15:55.899Z,68.90
2023-03-17T20:20:58.572Z,68.29
2023-03-17T20:26:00.038Z,68.89
2023-03-17T20:31:04.301Z,68.76
2023-03-17T20:36:06.199Z,68.20
2023-03-17T20:41:18.620Z,66.20
2023-03-17T20:46:22.703Z,65.76
2023-03-17T20:51:26.232Z,64.61
2023-03-17T20:56:29.740Z,64.55
2023-03-17T21:01:38.694Z,64.24
2023-03-17T21:06:41.333Z,63.79
2023-03-17T21:11:42.794Z,63.61
2023-03-17T21:16:46.279Z,63.92
2023-03-17T21:21:47.709Z,64.04
2023-03-17T21:26:49.261Z,64.21
2023-03-17T21:31:50.792Z,65.11
2023-03-17T21:36:52.716Z,66.80
2023-03-17T21:41:55.069Z,67.71
2023-03-17T21:46:56.608Z,68.17
2023-03-17T21:51:58.106Z,69.11
2023-03-17T21:56:59.592Z,70.23
2023-03-17T22:02:01.486Z,70.35
2023-03-17T22:07:04.376Z,69.83
2023-03-17T22:12:06.862Z,70.88
2023-03-17T22:17:08.306Z,70.88
2023-03-17T22:22:11.146Z,71.34
2023-03-17T22:27:13.392Z,71.93
2023-03-17T22:32:14.855Z,72.33
2023-03-17T22:37:16.316Z,73.21
2023-03-17T22:42:17.745Z,73.84
2023-03-17T22:47:19.286Z,74.13
2023-03-17T22:52:20.768Z,74.88
2023-03-17T22:57:22.206Z,74.87
2023-03-17T23:02:25.008Z,75.55
2023-03-17T23:07:27.118Z,75.30
2023-03-17T23:12:28.514Z,74.99
2023-03-17T23:17:30.090Z,75.21
2023-03-17T23:22:31.697Z,75.24
2023-03-17T23:27:33.181Z,75.70
2023-03-17T23:32:34.717Z,75.96
2023-03-17T23:37:37.225Z,76.81
2023-03-17T23:42:40.995Z,76.90
2023-03-17T23:47:43.650Z,77.31
2023-03-17T23:52:47.003Z,77.36
2023-03-17T23:57:49.135Z,77.46
